Stowe, Vermont
Current Conditions -  °F | °C
As of 12:54 AM on Saturday 29 Nov 2014 (Local Time) from KMVL Reporting Station
Overcast Overcast  
Wind Chill: 14°   Ceiling: 3200
Heat Index: 14°   Visibility: 10mi
Dew Point: 11°   Wind: 0mph
Humidity: 88%   Direction: NA
Pressure: 30.18"   Gusts: NA
Location:  44.47°N, 72.68°W
Report Text: KMVL 290554Z AUTO 00000KT 10SM OVC032 M10/M12 A3018 RMK AO2 SLP235 60000 T11001117 11067 21106 52004 TSNO
Loading
Personal Weather Stations






























Interactive Weather Map New forecast layout! Learn more

10-Day Weather Forecast

Advertisements
Track Severe Weather on mobile